Bara Ar Vro — FQBA — position and weather

sailwx.info

Track history (hours):
 
Tides and Currents Weather Stations Pressure Air Temp Water Temp Dewpoint Dewpoint Depression Visibility Wind Speed Wind Dir Waves Ship Positions

Bara Ar Vro

Last reported at 2017-Nov-19 17:44 UTC. Time now 2017-Nov-20 02:13 UTC.
Position N 48°43' W 006°21'.

Length 22 m; draft 3.8 m.

Type: Fishing. MMSI: 228935000.

Date/timePositionNaut miles runAvg speedWind from/ knotsBaromVisibWave heightAir tempDewpointWater temp
2017-Nov-19 17:44N 48°43' W 006°21'14 1.1
2017-Nov-19 05:44N 48°52' W 006°37'2 3.0
2017-Nov-19 05:09N 48°51' W 006°39'1 3.1
2017-Nov-19 04:57N 48°50' W 006°39'3 3.3
2017-Nov-19 04:12N 48°48' W 006°42'1 3.4
2017-Nov-19 04:00N 48°48' W 006°43'3 5.9
2017-Nov-19 03:30N 48°45' W 006°45'5 4.6
2017-Nov-19 02:28N 48°41' W 006°50'2 3.5
2017-Nov-19 01:55N 48°40' W 006°51'11 2.2
2017-Nov-18 20:47N 48°45' W 006°36'8 2.1
2017-Nov-18 16:51N 48°52' W 006°28'1 3.3
2017-Nov-18 16:28N 48°52' W 006°30'3 3.3
2017-Nov-18 15:40N 48°53' W 006°34'1 3.4
2017-Nov-18 15:23N 48°52' W 006°36'2 3.6
2017-Nov-18 14:55N 48°51' W 006°38'2 3.5
2017-Nov-18 14:25N 48°50' W 006°39'7 3.4
2017-Nov-18 12:29N 48°45' W 006°45'4 3.1
2017-Nov-18 11:21N 48°43' W 006°41'12 2.6
2017-Nov-18 06:51N 48°52' W 006°31'3 2.4
2017-Nov-18 05:30N 48°52' W 006°36'2 2.9
2017-Nov-18 04:52N 48°51' W 006°38'2 3.1
2017-Nov-18 04:18N 48°50' W 006°40'2 3.1
2017-Nov-18 03:38N 48°48' W 006°42'2 3.4
2017-Nov-18 03:06N 48°47' W 006°43'7 3.6
2017-Nov-18 01:10N 48°41' W 006°50'1 2.2
2017-Nov-18 00:44N 48°40' W 006°50'1 3.2
2017-Nov-18 00:18N 48°39' W 006°51'  
2017-Nov-14 16:14N 49°11' W 007°03'1 1.5
2017-Nov-14 15:47N 49°11' W 007°04'1 2.9
2017-Nov-14 15:28N 49°10' W 007°05'3 3.0
2017-Nov-14 14:24N 49°08' W 007°08'3 3.3
2017-Nov-14 13:23N 49°05' W 007°11'2 3.4
2017-Nov-14 12:56N 49°04' W 007°13'2 3.5
2017-Nov-14 12:27N 49°03' W 007°14'  
2017-Nov-11 10:36N 48°52' W 006°38'1 1.6
2017-Nov-11 10:04N 48°51' W 006°39'13 2.8
2017-Nov-11 05:37N 48°41' W 006°49'  
Track history (hours):
 
Tides and Currents Weather Stations Pressure Air Temp Water Temp Dewpoint Dewpoint Depression Visibility Wind Speed Wind Dir Waves Ship Positions

Bara Ar Vro

Last reported at 2017-Nov-19 17:44 UTC. Time now 2017-Nov-20 02:13 UTC.
Position N 48°43' W 006°21'.

Length 22 m; draft 3.8 m.

Type: Fishing. MMSI: 228935000.

Date/timePositionNaut miles runAvg speedWind from/ knotsBaromVisibWave heightAir tempDewpointWater temp
2017-Nov-19 17:44N 48°43' W 006°21'14 1.1
2017-Nov-19 05:44N 48°52' W 006°37'2 3.0
2017-Nov-19 05:09N 48°51' W 006°39'1 3.1
2017-Nov-19 04:57N 48°50' W 006°39'3 3.3
2017-Nov-19 04:12N 48°48' W 006°42'1 3.4
2017-Nov-19 04:00N 48°48' W 006°43'3 5.9
2017-Nov-19 03:30N 48°45' W 006°45'5 4.6
2017-Nov-19 02:28N 48°41' W 006°50'2 3.5
2017-Nov-19 01:55N 48°40' W 006°51'11 2.2
2017-Nov-18 20:47N 48°45' W 006°36'8 2.1
2017-Nov-18 16:51N 48°52' W 006°28'1 3.3
2017-Nov-18 16:28N 48°52' W 006°30'3 3.3
2017-Nov-18 15:40N 48°53' W 006°34'1 3.4
2017-Nov-18 15:23N 48°52' W 006°36'2 3.6
2017-Nov-18 14:55N 48°51' W 006°38'2 3.5
2017-Nov-18 14:25N 48°50' W 006°39'7 3.4
2017-Nov-18 12:29N 48°45' W 006°45'4 3.1
2017-Nov-18 11:21N 48°43' W 006°41'12 2.6
2017-Nov-18 06:51N 48°52' W 006°31'3 2.4
2017-Nov-18 05:30N 48°52' W 006°36'2 2.9
2017-Nov-18 04:52N 48°51' W 006°38'2 3.1
2017-Nov-18 04:18N 48°50' W 006°40'2 3.1
2017-Nov-18 03:38N 48°48' W 006°42'2 3.4
2017-Nov-18 03:06N 48°47' W 006°43'7 3.6
2017-Nov-18 01:10N 48°41' W 006°50'1 2.2
2017-Nov-18 00:44N 48°40' W 006°50'1 3.2
2017-Nov-18 00:18N 48°39' W 006°51'  
2017-Nov-14 16:14N 49°11' W 007°03'1 1.5
2017-Nov-14 15:47N 49°11' W 007°04'1 2.9
2017-Nov-14 15:28N 49°10' W 007°05'3 3.0
2017-Nov-14 14:24N 49°08' W 007°08'3 3.3
2017-Nov-14 13:23N 49°05' W 007°11'2 3.4
2017-Nov-14 12:56N 49°04' W 007°13'2 3.5
2017-Nov-14 12:27N 49°03' W 007°14'  
2017-Nov-11 10:36N 48°52' W 006°38'1 1.6
2017-Nov-11 10:04N 48°51' W 006°39'13 2.8
2017-Nov-11 05:37N 48°41' W 006°49'  

Dump ship's entire track history